TUI156 VECC-VQPR
Flight info
| Callsign | TUI156 |
|---|---|
| Flight time | N/A |
| Altitude | 33000 |
| Route | AGODA2F AGODA R472 RAJ R598 BOGOP BOGOP1A |
| Aircraft | B738/M-SDE2E3FGHIRWXY/LB1 |
Departure
| Time | 2026-05-05 15:03 |
|---|---|
| Airport | Netaji Subhash Chandra Bose International Airport (VECC) |
Arrival
| Time | N/A |
|---|---|
| Airport | Paro International Airport (VQPR) |
| Time | Latitude | Longitude | Altitude | Speed | Heading |
|---|---|---|---|---|---|
| 2026-05-05 14:28 | 22.64457 | 88.44093 | 23 ft | 0 kts | 273° |
| 2026-05-05 14:53 | 22.64455 | 88.44113 | 28 ft | 3 kts | 273° |
| 2026-05-05 14:53 | 22.64454 | 88.44133 | 27 ft | 3 kts | 273° |
| 2026-05-05 14:53 | 22.64454 | 88.44153 | 28 ft | 3 kts | 285° |
| 2026-05-05 14:53 | 22.64443 | 88.44168 | 27 ft | 3 kts | 351° |
| 2026-05-05 14:54 | 22.64427 | 88.44178 | 24 ft | 3 kts | 287° |
| 2026-05-05 14:54 | 22.64426 | 88.44193 | 28 ft | 0 kts | 236° |
| 2026-05-05 14:58 | 22.64420 | 88.44182 | 24 ft | 3 kts | 235° |
| 2026-05-05 14:58 | 22.64392 | 88.44158 | 25 ft | 7 kts | 201° |
| 2026-05-05 14:58 | 22.64333 | 88.44148 | 24 ft | 10 kts | 186° |
| 2026-05-05 14:59 | 22.64261 | 88.44143 | 25 ft | 11 kts | 183° |
| 2026-05-05 14:59 | 22.64178 | 88.44132 | 26 ft | 13 kts | 188° |
| 2026-05-05 14:59 | 22.64087 | 88.44117 | 24 ft | 14 kts | 188° |
| 2026-05-05 14:59 | 22.63989 | 88.44131 | 23 ft | 15 kts | 155° |
| 2026-05-05 15:00 | 22.63901 | 88.44182 | 23 ft | 14 kts | 152° |
| 2026-05-05 15:00 | 22.63845 | 88.44214 | 24 ft | 14 kts | 154° |
| 2026-05-05 15:00 | 22.63766 | 88.44262 | 25 ft | 0 kts | 136° |
| 2026-05-05 15:01 | 22.63765 | 88.44262 | 23 ft | 1 kts | 136° |
| 2026-05-05 15:01 | 22.63752 | 88.44286 | 23 ft | 7 kts | 110° |
| 2026-05-05 15:02 | 22.63754 | 88.44348 | 24 ft | 9 kts | 62° |
| 2026-05-05 15:02 | 22.63807 | 88.44372 | 25 ft | 9 kts | 3° |
| 2026-05-05 15:02 | 22.63920 | 88.44385 | 26 ft | 40 kts | 7° |
| 2026-05-05 15:02 | 22.64458 | 88.44450 | 23 ft | 113 kts | 6° |
| 2026-05-05 15:03 | 22.65451 | 88.44547 | 84 ft | 166 kts | 7° |
| 2026-05-05 15:03 | 22.66633 | 88.44688 | 706 ft | 174 kts | 5° |
| 2026-05-05 15:03 | 22.67909 | 88.44715 | 1306 ft | 192 kts | 7° |
| 2026-05-05 15:03 | 22.69257 | 88.44898 | 2042 ft | 203 kts | 11° |
| 2026-05-05 15:04 | 22.70679 | 88.45137 | 2860 ft | 208 kts | 10° |
| 2026-05-05 15:04 | 22.72099 | 88.45411 | 3748 ft | 206 kts | 10° |
| 2026-05-05 15:04 | 22.73503 | 88.45708 | 4619 ft | 207 kts | 10° |
| 2026-05-05 15:04 | 22.74914 | 88.46033 | 5309 ft | 207 kts | 10° |
| 2026-05-05 15:05 | 22.77700 | 88.46748 | 6540 ft | 207 kts | 9° |
| 2026-05-05 15:05 | 22.79091 | 88.47131 | 7062 ft | 211 kts | 11° |
| 2026-05-05 15:05 | 22.80533 | 88.47522 | 7585 ft | 215 kts | 10° |
| 2026-05-05 15:06 | 22.81975 | 88.47912 | 8178 ft | 211 kts | 11° |
| 2026-05-05 15:06 | 22.83381 | 88.48296 | 8766 ft | 204 kts | 10° |
| 2026-05-05 15:06 | 22.84751 | 88.48681 | 9370 ft | 204 kts | 10° |
| 2026-05-05 15:06 | 22.86126 | 88.49076 | 9959 ft | 205 kts | 10° |
| 2026-05-05 15:07 | 22.87542 | 88.49218 | 10313 ft | 210 kts | 345° |
| 2026-05-05 15:07 | 22.89033 | 88.48844 | 10480 ft | 231 kts | 344° |
| 2026-05-05 15:07 | 22.90687 | 88.48508 | 10669 ft | 253 kts | 348° |
| 2026-05-05 15:07 | 22.92478 | 88.48263 | 10918 ft | 270 kts | 351° |
| 2026-05-05 15:08 | 22.94380 | 88.48114 | 11396 ft | 276 kts | 354° |
| 2026-05-05 15:08 | 22.96339 | 88.48050 | 11801 ft | 292 kts | 356° |
| 2026-05-05 15:08 | 22.98464 | 88.48053 | 11978 ft | 318 kts | 358° |
| 2026-05-05 15:08 | 23.00758 | 88.48120 | 12156 ft | 341 kts | 359° |
| 2026-05-05 15:09 | 23.03194 | 88.48246 | 12579 ft | 355 kts | 0° |
| 2026-05-05 15:09 | 23.05679 | 88.48416 | 13250 ft | 360 kts | 1° |
| 2026-05-05 15:09 | 23.08151 | 88.48611 | 13957 ft | 363 kts | 1° |
| 2026-05-05 15:09 | 23.10683 | 88.48827 | 14645 ft | 366 kts | 1° |
| 2026-05-05 15:10 | 23.13239 | 88.49056 | 15404 ft | 368 kts | 2° |
| 2026-05-05 15:10 | 23.15817 | 88.49291 | 16034 ft | 374 kts | 2° |
| 2026-05-05 15:10 | 23.18436 | 88.49532 | 16651 ft | 379 kts | 2° |
| 2026-05-05 15:10 | 23.21082 | 88.49777 | 17284 ft | 384 kts | 2° |
| 2026-05-05 15:11 | 23.23764 | 88.50026 | 17925 ft | 388 kts | 2° |
| 2026-05-05 15:11 | 23.26473 | 88.50279 | 18482 ft | 393 kts | 2° |
| 2026-05-05 15:11 | 23.29179 | 88.50531 | 19001 ft | 397 kts | 2° |
| 2026-05-05 15:11 | 23.31944 | 88.50788 | 19550 ft | 401 kts | 2° |
| 2026-05-05 15:12 | 23.34779 | 88.51053 | 20116 ft | 404 kts | 2° |
| 2026-05-05 15:12 | 23.37554 | 88.51312 | 20657 ft | 407 kts | 2° |
| 2026-05-05 15:12 | 23.40389 | 88.51576 | 21180 ft | 411 kts | 2° |
| 2026-05-05 15:12 | 23.43253 | 88.51843 | 21700 ft | 415 kts | 2° |
| 2026-05-05 15:13 | 23.46146 | 88.52113 | 22193 ft | 419 kts | 2° |
| 2026-05-05 15:13 | 23.49062 | 88.52385 | 22681 ft | 423 kts | 2° |
| 2026-05-05 15:13 | 23.52011 | 88.52660 | 23160 ft | 427 kts | 2° |
| 2026-05-05 15:13 | 23.54992 | 88.52939 | 23603 ft | 431 kts | 1° |
| 2026-05-05 15:14 | 23.57992 | 88.53219 | 23986 ft | 434 kts | 1° |
| 2026-05-05 15:14 | 23.61020 | 88.53502 | 24377 ft | 437 kts | 1° |
| 2026-05-05 15:14 | 23.64022 | 88.53783 | 24764 ft | 440 kts | 1° |
| 2026-05-05 15:14 | 23.67084 | 88.54070 | 25140 ft | 443 kts | 1° |
| 2026-05-05 15:15 | 23.70169 | 88.54359 | 25496 ft | 446 kts | 1° |
| 2026-05-05 15:15 | 23.73277 | 88.54650 | 25862 ft | 449 kts | 1° |
| 2026-05-05 15:15 | 23.76408 | 88.54944 | 26216 ft | 453 kts | 1° |
| 2026-05-05 15:15 | 23.79564 | 88.55239 | 26548 ft | 456 kts | 1° |
| 2026-05-05 15:16 | 23.82742 | 88.55537 | 26892 ft | 459 kts | 1° |
| 2026-05-05 15:16 | 23.85938 | 88.55837 | 27240 ft | 462 kts | 1° |
| 2026-05-05 15:16 | 23.89114 | 88.56136 | 27570 ft | 465 kts | 1° |
| 2026-05-05 15:16 | 23.92347 | 88.56440 | 27886 ft | 468 kts | 1° |
| 2026-05-05 15:17 | 23.95605 | 88.56746 | 28206 ft | 471 kts | 1° |
| 2026-05-05 15:17 | 23.98890 | 88.57055 | 28519 ft | 474 kts | 1° |
| 2026-05-05 15:17 | 24.02186 | 88.57365 | 28823 ft | 477 kts | 1° |
| 2026-05-05 15:17 | 24.05503 | 88.57678 | 29116 ft | 479 kts | 1° |
| 2026-05-05 15:18 | 24.08842 | 88.57992 | 29358 ft | 484 kts | 1° |
| 2026-05-05 15:18 | 24.12220 | 88.58310 | 29590 ft | 488 kts | 1° |
| 2026-05-05 15:18 | 24.15612 | 88.58630 | 29899 ft | 490 kts | 1° |
| 2026-05-05 15:18 | 24.19009 | 88.58951 | 30169 ft | 491 kts | 1° |
| 2026-05-05 15:19 | 24.22383 | 88.59271 | 30420 ft | 493 kts | 1° |
| 2026-05-05 15:19 | 24.25819 | 88.59596 | 30668 ft | 495 kts | 1° |
| 2026-05-05 15:19 | 24.29254 | 88.59920 | 30914 ft | 496 kts | 1° |
| 2026-05-05 15:19 | 24.32708 | 88.60248 | 31236 ft | 496 kts | 1° |
| 2026-05-05 15:20 | 24.36148 | 88.60615 | 31611 ft | 495 kts | 1° |
| 2026-05-05 15:20 | 24.39567 | 88.61007 | 31988 ft | 494 kts | 1° |
| 2026-05-05 15:20 | 24.42990 | 88.61398 | 32279 ft | 494 kts | 1° |
| 2026-05-05 15:20 | 24.46417 | 88.61916 | 32575 ft | 497 kts | 5° |
| 2026-05-05 15:21 | 24.49779 | 88.62615 | 32894 ft | 498 kts | 7° |
| 2026-05-05 15:21 | 24.56614 | 88.64221 | 32913 ft | 503 kts | 8° |
| 2026-05-05 15:22 | 24.63407 | 88.65817 | 32902 ft | 496 kts | 7° |
| 2026-05-05 15:22 | 24.69030 | 88.67087 | 32920 ft | 496 kts | 7° |
| 2026-05-05 15:23 | 24.75811 | 88.68593 | 32921 ft | 497 kts | 7° |
| 2026-05-05 15:23 | 24.82612 | 88.70102 | 32917 ft | 498 kts | 7° |
| 2026-05-05 15:24 | 24.89372 | 88.71608 | 32913 ft | 499 kts | 7° |
| 2026-05-05 15:24 | 24.96176 | 88.73129 | 32911 ft | 499 kts | 7° |
| 2026-05-05 15:25 | 25.02987 | 88.74652 | 32928 ft | 499 kts | 7° |
| 2026-05-05 15:25 | 25.09795 | 88.76177 | 32910 ft | 499 kts | 7° |
| 2026-05-05 15:26 | 25.16587 | 88.77699 | 32907 ft | 498 kts | 7° |
| 2026-05-05 15:26 | 25.23379 | 88.79215 | 32912 ft | 496 kts | 6° |
| 2026-05-05 15:27 | 25.30151 | 88.80685 | 32912 ft | 495 kts | 6° |
| 2026-05-05 15:27 | 25.36869 | 88.82148 | 32912 ft | 495 kts | 6° |
| 2026-05-05 15:28 | 25.43659 | 88.83642 | 32915 ft | 494 kts | 6° |
| 2026-05-05 15:28 | 25.50367 | 88.85128 | 32914 ft | 494 kts | 6° |
| 2026-05-05 15:29 | 25.57123 | 88.86624 | 32913 ft | 494 kts | 6° |
| 2026-05-05 15:29 | 25.63880 | 88.88121 | 32936 ft | 495 kts | 7° |
| 2026-05-05 15:30 | 25.70646 | 88.89623 | 32922 ft | 497 kts | 7° |
| 2026-05-05 15:30 | 25.73992 | 88.90680 | 32907 ft | 503 kts | 18° |
| 2026-05-05 15:30 | 25.77166 | 88.92344 | 32921 ft | 507 kts | 27° |
| 2026-05-05 15:31 | 25.82733 | 88.97123 | 32930 ft | 512 kts | 41° |
| 2026-05-05 15:31 | 25.87879 | 89.02600 | 32910 ft | 513 kts | 42° |
| 2026-05-05 15:32 | 25.93075 | 89.08046 | 32919 ft | 513 kts | 41° |
| 2026-05-05 15:32 | 25.98317 | 89.13437 | 32926 ft | 513 kts | 41° |
| 2026-05-05 15:33 | 26.03526 | 89.18760 | 32623 ft | 499 kts | 40° |
| 2026-05-05 15:33 | 26.08669 | 89.23868 | 32648 ft | 500 kts | 40° |
| 2026-05-05 15:33 | 26.11311 | 89.26464 | 32392 ft | 512 kts | 39° |
| 2026-05-05 15:34 | 26.14029 | 89.29059 | 31837 ft | 517 kts | 39° |
| 2026-05-05 15:34 | 26.16739 | 89.31619 | 31147 ft | 517 kts | 39° |
| 2026-05-05 15:34 | 26.19482 | 89.34208 | 30547 ft | 515 kts | 39° |
| 2026-05-05 15:34 | 26.22197 | 89.36783 | 30015 ft | 512 kts | 39° |
| 2026-05-05 15:35 | 26.24898 | 89.39357 | 29411 ft | 508 kts | 39° |
| 2026-05-05 15:35 | 26.27571 | 89.41914 | 28858 ft | 503 kts | 39° |
| 2026-05-05 15:35 | 26.30215 | 89.44443 | 28296 ft | 498 kts | 39° |
| 2026-05-05 15:35 | 26.32843 | 89.46937 | 27751 ft | 492 kts | 37° |
| 2026-05-05 15:36 | 26.35573 | 89.49107 | 27215 ft | 485 kts | 29° |
| 2026-05-05 15:36 | 26.38488 | 89.51035 | 26693 ft | 479 kts | 27° |
| 2026-05-05 15:36 | 26.41325 | 89.52859 | 26183 ft | 474 kts | 27° |
| 2026-05-05 15:36 | 26.44150 | 89.54721 | 25670 ft | 470 kts | 28° |
| 2026-05-05 15:37 | 26.46936 | 89.56601 | 25141 ft | 466 kts | 28° |
| 2026-05-05 15:37 | 26.49690 | 89.58484 | 24617 ft | 462 kts | 28° |
| 2026-05-05 15:37 | 26.52423 | 89.60354 | 24106 ft | 459 kts | 28° |
| 2026-05-05 15:37 | 26.55114 | 89.62195 | 23580 ft | 447 kts | 28° |
| 2026-05-05 15:38 | 26.57731 | 89.63985 | 23016 ft | 435 kts | 28° |
| 2026-05-05 15:38 | 26.60306 | 89.65744 | 22485 ft | 432 kts | 28° |
| 2026-05-05 15:38 | 26.62860 | 89.67487 | 22006 ft | 428 kts | 28° |
| 2026-05-05 15:38 | 26.65390 | 89.69216 | 21503 ft | 425 kts | 28° |
| 2026-05-05 15:39 | 26.67906 | 89.70936 | 21035 ft | 422 kts | 28° |
| 2026-05-05 15:39 | 26.70452 | 89.72519 | 20536 ft | 415 kts | 18° |
| 2026-05-05 15:39 | 26.73227 | 89.73151 | 20076 ft | 403 kts | 357° |
| 2026-05-05 15:39 | 26.75978 | 89.72860 | 19620 ft | 394 kts | 343° |
| 2026-05-05 15:40 | 26.78507 | 89.71792 | 19179 ft | 384 kts | 329° |
| 2026-05-05 15:40 | 26.80860 | 89.70356 | 18619 ft | 385 kts | 328° |
| 2026-05-05 15:40 | 26.83154 | 89.68932 | 18295 ft | 379 kts | 328° |
| 2026-05-05 15:40 | 26.85448 | 89.67534 | 18052 ft | 370 kts | 328° |
| 2026-05-05 15:41 | 26.87515 | 89.65923 | 17882 ft | 355 kts | 311° |
| 2026-05-05 15:41 | 26.89110 | 89.63924 | 17744 ft | 334 kts | 308° |
| 2026-05-05 15:41 | 26.90626 | 89.62030 | 17593 ft | 317 kts | 309° |
| 2026-05-05 15:41 | 26.92120 | 89.60193 | 16836 ft | 321 kts | 309° |
| 2026-05-05 15:42 | 26.93623 | 89.58359 | 16338 ft | 313 kts | 310° |
| 2026-05-05 15:42 | 26.95072 | 89.56604 | 15918 ft | 300 kts | 310° |
| 2026-05-05 15:42 | 26.96579 | 89.55057 | 15550 ft | 291 kts | 327° |
| 2026-05-05 15:42 | 26.98426 | 89.54251 | 15229 ft | 284 kts | 347° |
| 2026-05-05 15:43 | 27.00328 | 89.53997 | 14940 ft | 274 kts | 352° |
| 2026-05-05 15:43 | 27.02191 | 89.53804 | 14590 ft | 262 kts | 352° |
| 2026-05-05 15:43 | 27.03955 | 89.53614 | 14226 ft | 245 kts | 352° |
| 2026-05-05 15:43 | 27.05608 | 89.53429 | 13935 ft | 234 kts | 352° |
| 2026-05-05 15:44 | 27.07196 | 89.53244 | 13628 ft | 223 kts | 352° |
| 2026-05-05 15:44 | 27.08753 | 89.53061 | 13359 ft | 227 kts | 352° |
| 2026-05-05 15:44 | 27.10332 | 89.52874 | 13050 ft | 228 kts | 352° |
| 2026-05-05 15:44 | 27.11905 | 89.52690 | 12787 ft | 225 kts | 352° |
| 2026-05-05 15:45 | 27.13452 | 89.52513 | 12485 ft | 222 kts | 352° |
| 2026-05-05 15:45 | 27.14970 | 89.52333 | 12256 ft | 220 kts | 352° |
| 2026-05-05 15:45 | 27.16510 | 89.52147 | 11967 ft | 223 kts | 352° |
| 2026-05-05 15:45 | 27.18044 | 89.51966 | 11697 ft | 220 kts | 354° |
| 2026-05-05 15:46 | 27.19565 | 89.51788 | 11419 ft | 218 kts | 354° |
| 2026-05-05 15:46 | 27.21068 | 89.51620 | 11146 ft | 217 kts | 355° |
| 2026-05-05 15:46 | 27.22575 | 89.51625 | 10898 ft | 217 kts | 5° |
| 2026-05-05 15:46 | 27.24061 | 89.51904 | 10676 ft | 217 kts | 14° |
| 2026-05-05 15:47 | 27.25522 | 89.52186 | 10429 ft | 216 kts | 353° |
| 2026-05-05 15:47 | 27.26536 | 89.52164 | 10187 ft | 218 kts | 9° |
| 2026-05-05 15:47 | 27.28362 | 89.53074 | 9374 ft | 219 kts | 40° |
| 2026-05-05 15:47 | 27.29446 | 89.54234 | 8852 ft | 209 kts | 33° |
| 2026-05-05 15:48 | 27.30786 | 89.54767 | 8392 ft | 205 kts | 8° |
| 2026-05-05 15:48 | 27.32183 | 89.54922 | 8010 ft | 187 kts | 31° |
| 2026-05-05 15:48 | 27.32834 | 89.55952 | 8137 ft | 164 kts | 66° |
| 2026-05-05 15:48 | 27.33665 | 89.57039 | 7742 ft | 212 kts | 24° |
| 2026-05-05 15:49 | 27.35050 | 89.56991 | 7796 ft | 195 kts | 336° |
| 2026-05-05 15:49 | 27.36220 | 89.56267 | 8377 ft | 193 kts | 319° |
| 2026-05-05 15:49 | 27.36973 | 89.55034 | 8607 ft | 187 kts | 310° |
| 2026-05-05 15:49 | 27.37525 | 89.53778 | 9426 ft | 184 kts | 275° |
| 2026-05-05 15:50 | 27.37560 | 89.52438 | 10428 ft | 145 kts | 275° |
| 2026-05-05 15:50 | 27.37611 | 89.51510 | 11715 ft | 420 kts | 265° |
| 2026-05-05 15:50 | 27.37531 | 89.48904 | 12882 ft | 352 kts | 269° |
| 2026-05-05 15:50 | 27.37728 | 89.46253 | 12904 ft | 330 kts | 281° |
| 2026-05-05 15:51 | 27.38647 | 89.44023 | 13072 ft | 305 kts | 312° |
| 2026-05-05 15:51 | 27.40185 | 89.42498 | 13097 ft | 287 kts | 322° |
| 2026-05-05 15:51 | 27.41804 | 89.41247 | 13351 ft | 288 kts | 327° |
| 2026-05-05 15:51 | 27.43595 | 89.40078 | 13550 ft | 305 kts | 331° |
| 2026-05-05 15:52 | 27.45478 | 89.38993 | 14374 ft | 299 kts | 333° |
| 2026-05-05 15:52 | 27.47316 | 89.38027 | 15399 ft | 286 kts | 334° |
| 2026-05-05 15:52 | 27.49012 | 89.36942 | 16201 ft | 279 kts | 314° |
| 2026-05-05 15:52 | 27.50112 | 89.35089 | 16160 ft | 300 kts | 284° |
| 2026-05-05 15:53 | 27.50239 | 89.32659 | 15825 ft | 328 kts | 253° |
| 2026-05-05 15:53 | 27.49173 | 89.30451 | 16271 ft | 324 kts | 223° |
| 2026-05-05 15:53 | 27.47463 | 89.28899 | 17297 ft | 309 kts | 226° |
| 2026-05-05 15:53 | 27.46246 | 89.26860 | 17412 ft | 325 kts | 248° |
| 2026-05-05 15:54 | 27.45171 | 89.24577 | 17581 ft | 340 kts | 229° |
| 2026-05-05 15:54 | 27.43183 | 89.23055 | 17721 ft | 357 kts | 201° |
| 2026-05-05 15:54 | 27.40674 | 89.22689 | 17967 ft | 376 kts | 176° |
| 2026-05-05 15:54 | 27.38130 | 89.23575 | 18087 ft | 395 kts | 152° |
| 2026-05-05 15:55 | 27.35962 | 89.25561 | 18272 ft | 409 kts | 137° |
| 2026-05-05 15:55 | 27.34011 | 89.27955 | 18242 ft | 423 kts | 129° |
| 2026-05-05 15:55 | 27.32505 | 89.30802 | 18294 ft | 434 kts | 121° |
| 2026-05-05 15:55 | 27.30609 | 89.33463 | 18293 ft | 438 kts | 143° |
| 2026-05-05 15:56 | 27.28018 | 89.35110 | 18247 ft | 418 kts | 166° |
| 2026-05-05 15:56 | 27.25264 | 89.35545 | 18274 ft | 387 kts | 181° |
| 2026-05-05 15:56 | 27.22695 | 89.36037 | 18207 ft | 370 kts | 159° |
| 2026-05-05 15:56 | 27.20649 | 89.37669 | 18211 ft | 356 kts | 132° |
| 2026-05-05 15:57 | 27.19521 | 89.40058 | 18206 ft | 341 kts | 103° |
| 2026-05-05 15:57 | 27.19291 | 89.42637 | 18239 ft | 323 kts | 94° |
| 2026-05-05 15:57 | 27.19039 | 89.45073 | 18201 ft | 304 kts | 104° |
| 2026-05-05 15:57 | 27.18486 | 89.47239 | 18184 ft | 281 kts | 114° |
| 2026-05-05 15:58 | 27.17854 | 89.49209 | 18185 ft | 262 kts | 98° |
| 2026-05-05 15:58 | 27.17684 | 89.51220 | 18235 ft | 259 kts | 109° |
| 2026-05-05 15:58 | 27.16740 | 89.52861 | 18201 ft | 247 kts | 149° |
| 2026-05-05 15:58 | 27.15201 | 89.53464 | 18209 ft | 227 kts | 190° |
| 2026-05-05 15:59 | 27.13753 | 89.52912 | 18185 ft | 218 kts | 212° |
| 2026-05-05 15:59 | 27.12291 | 89.52551 | 18149 ft | 226 kts | 178° |
| 2026-05-05 15:59 | 27.10743 | 89.52780 | 18109 ft | 223 kts | 179° |
| 2026-05-05 15:59 | 27.09216 | 89.52855 | 17804 ft | 215 kts | 199° |
| 2026-05-05 16:00 | 27.07929 | 89.52130 | 17367 ft | 206 kts | 226° |
| 2026-05-05 16:00 | 27.07154 | 89.50832 | 16806 ft | 199 kts | 256° |
| 2026-05-05 16:00 | 27.06926 | 89.49277 | 16082 ft | 205 kts | 263° |
| 2026-05-05 16:00 | 27.06792 | 89.47661 | 15380 ft | 211 kts | 264° |
| 2026-05-05 16:01 | 27.06669 | 89.45992 | 14685 ft | 218 kts | 264° |
| 2026-05-05 16:01 | 27.06548 | 89.44270 | 13998 ft | 224 kts | 264° |
| 2026-05-05 16:01 | 27.06437 | 89.42582 | 13659 ft | 208 kts | 265° |
| 2026-05-05 16:01 | 27.06343 | 89.41041 | 13581 ft | 199 kts | 265° |
| 2026-05-05 16:02 | 27.06246 | 89.39462 | 13477 ft | 203 kts | 265° |
| 2026-05-05 16:02 | 27.06199 | 89.37911 | 13165 ft | 195 kts | 275° |
| 2026-05-05 16:02 | 27.06379 | 89.36414 | 13210 ft | 197 kts | 276° |
| 2026-05-05 16:02 | 27.06357 | 89.34835 | 13113 ft | 208 kts | 249° |
| 2026-05-05 16:03 | 27.05517 | 89.33520 | 13115 ft | 211 kts | 216° |
| 2026-05-05 16:03 | 27.04156 | 89.33010 | 13133 ft | 210 kts | 181° |
| 2026-05-05 16:03 | 27.02758 | 89.33491 | 13104 ft | 215 kts | 145° |
| 2026-05-05 16:03 | 27.01839 | 89.34817 | 13109 ft | 222 kts | 110° |
| 2026-05-05 16:04 | 27.01728 | 89.36516 | 13119 ft | 226 kts | 74° |
| 2026-05-05 16:04 | 27.02581 | 89.37961 | 13112 ft | 224 kts | 37° |
| 2026-05-05 16:04 | 27.03788 | 89.39089 | 13102 ft | 229 kts | 43° |
| 2026-05-05 16:04 | 27.04871 | 89.40396 | 13131 ft | 229 kts | 51° |
| 2026-05-05 16:05 | 27.05799 | 89.41846 | 13131 ft | 227 kts | 58° |
| 2026-05-05 16:05 | 27.06573 | 89.43375 | 13103 ft | 223 kts | 63° |
| 2026-05-05 16:05 | 27.07232 | 89.44925 | 13137 ft | 220 kts | 66° |
| 2026-05-05 16:05 | 27.07843 | 89.46511 | 13153 ft | 222 kts | 68° |
| 2026-05-05 16:06 | 27.08431 | 89.48116 | 13361 ft | 222 kts | 69° |
| 2026-05-05 16:06 | 27.09011 | 89.49733 | 13600 ft | 224 kts | 68° |
| 2026-05-05 16:06 | 27.09639 | 89.51340 | 13795 ft | 228 kts | 54° |
| 2026-05-05 16:06 | 27.10820 | 89.52462 | 14049 ft | 222 kts | 18° |
| 2026-05-05 16:07 | 27.12305 | 89.52709 | 14167 ft | 222 kts | 355° |
| 2026-05-05 16:07 | 27.13837 | 89.52545 | 14209 ft | 221 kts | 351° |
| 2026-05-05 16:07 | 27.15358 | 89.52334 | 14184 ft | 219 kts | 351° |
| 2026-05-05 16:07 | 27.16887 | 89.52132 | 14250 ft | 225 kts | 351° |
| 2026-05-05 16:08 | 27.18530 | 89.51923 | 13621 ft | 250 kts | 353° |
| 2026-05-05 16:08 | 27.20265 | 89.51713 | 12894 ft | 252 kts | 353° |
| 2026-05-05 16:08 | 27.22017 | 89.51572 | 12173 ft | 252 kts | 0° |
| 2026-05-05 16:08 | 27.23736 | 89.51754 | 11478 ft | 251 kts | 11° |
| 2026-05-05 16:09 | 27.25442 | 89.52154 | 10818 ft | 250 kts | 1° |
| 2026-05-05 16:09 | 27.27093 | 89.51839 | 10510 ft | 232 kts | 356° |
| 2026-05-05 16:09 | 27.28560 | 89.52290 | 10170 ft | 215 kts | 50° |
| 2026-05-05 16:09 | 27.29425 | 89.53557 | 10145 ft | 202 kts | 45° |
| 2026-05-05 16:10 | 27.30544 | 89.54523 | 10123 ft | 205 kts | 39° |
| 2026-05-05 16:10 | 27.31691 | 89.55495 | 10065 ft | 204 kts | 33° |
| 2026-05-05 16:10 | 27.32945 | 89.56162 | 10098 ft | 204 kts | 16° |
| 2026-05-05 16:10 | 27.34348 | 89.56305 | 9993 ft | 204 kts | 345° |
| 2026-05-05 16:11 | 27.35666 | 89.55725 | 9877 ft | 208 kts | 329° |
| 2026-05-05 16:11 | 27.38145 | 89.52752 | 11255 ft | 421 kts | 283° |
| 2026-05-05 16:12 | 27.38695 | 89.50176 | 12076 ft | 400 kts | 283° |